Time;durP1;ratioP1;P1;durP2;ratioP2;P2;SDS_P1;SDS_P2;PMS_P1;PMS_P2;Temp;Humidity;BMP_temperature;BMP_pressure;BME280_temperature;BME280_humidity;BME280_pressure;Samples;Min_cycle;Max_cycle;Signal;HPM_P1;HPM_P2
2023/01/09 00:01:46;;;;;;;5.72;1.90;;;6.60;99.90;;;;;;5085934;28;20410;-77
2023/01/09 00:04:12;;;;;;;4.63;1.77;;;6.70;99.90;;;;;;5085177;28;20487;-77
2023/01/09 00:06:39;;;;;;;5.65;1.70;;;6.70;99.90;;;;;;5086012;28;20438;-77
2023/01/09 00:09:05;;;;;;;5.18;1.70;;;6.70;99.90;;;;;;5087546;28;20410;-77
2023/01/09 00:11:31;;;;;;;4.45;1.52;;;6.70;99.90;;;;;;5087042;28;20473;-77
2023/01/09 00:13:56;;;;;;;4.75;1.83;;;6.80;99.90;;;;;;5086121;28;20540;-77
2023/01/09 00:16:22;;;;;;;4.30;1.53;;;6.80;99.90;;;;;;5089658;28;20394;-77
2023/01/09 00:18:48;;;;;;;7.28;2.03;;;6.80;99.90;;;;;;5089758;28;20417;-77
2023/01/09 00:21:14;;;;;;;3.97;1.67;;;6.80;99.90;;;;;;5089654;28;20401;-77
2023/01/09 00:23:39;;;;;;;6.60;1.87;;;6.80;99.90;;;;;;5090470;28;20788;-77
2023/01/09 00:26:12;;;;;;;5.77;1.73;;;6.80;99.90;;;;;;5089658;28;20398;-77
2023/01/09 00:28:38;;;;;;;6.15;1.80;;;6.80;99.90;;;;;;5089962;28;20409;-77
2023/01/09 00:31:06;;;;;;;4.50;1.80;;;6.90;99.90;;;;;;5090358;28;20468;-77
2023/01/09 00:33:34;;;;;;;4.22;1.80;;;6.90;99.90;;;;;;5090020;28;20915;-77
2023/01/09 00:36:00;;;;;;;3.60;1.70;;;6.90;99.90;;;;;;5090711;28;20402;-77
2023/01/09 00:38:26;;;;;;;5.40;1.90;;;6.90;99.90;;;;;;5089531;28;20413;-77
2023/01/09 00:40:53;;;;;;;6.25;1.58;;;6.90;99.90;;;;;;5089898;28;20975;-77
2023/01/09 00:43:20;;;;;;;3.15;1.60;;;6.90;99.90;;;;;;5089180;28;20426;-77
2023/01/09 00:45:45;;;;;;;4.85;1.80;;;6.90;99.90;;;;;;5090679;28;20745;-77
2023/01/09 00:48:15;;;;;;;5.93;1.67;;;7.00;99.90;;;;;;5090021;28;20405;-77
2023/01/09 00:50:41;;;;;;;5.00;1.52;;;7.00;99.90;;;;;;5088949;28;20470;-77
2023/01/09 00:53:14;;;;;;;5.80;1.50;;;7.00;99.90;;;;;;5088077;28;20496;-77
2023/01/09 00:55:40;;;;;;;4.75;1.42;;;7.10;99.90;;;;;;5089226;28;20432;-77
2023/01/09 00:58:06;;;;;;;5.80;1.92;;;7.10;99.90;;;;;;5087707;28;20438;-77
2023/01/09 01:00:32;;;;;;;4.78;2.30;;;7.20;99.90;;;;;;5089790;28;20421;-77
2023/01/09 01:02:57;;;;;;;5.28;3.03;;;7.10;99.90;;;;;;5090621;28;20409;-77
2023/01/09 01:08:12;;;;;;;4.95;2.10;;;7.00;99.90;;;;;;5078606;28;20413;-77
2023/01/09 01:10:38;;;;;;;3.20;1.70;;;7.00;99.90;;;;;;5089455;28;20487;-77
2023/01/09 01:13:04;;;;;;;4.03;1.40;;;6.90;99.90;;;;;;5089685;28;20429;-77
2023/01/09 01:15:30;;;;;;;1.83;0.85;;;6.80;99.90;;;;;;5091446;28;20407;-77
2023/01/09 01:17:56;;;;;;;2.83;0.75;;;6.80;99.90;;;;;;5089861;28;20410;-77
2023/01/09 01:20:21;;;;;;;2.47;0.90;;;6.70;99.90;;;;;;5073817;28;20405;-77
2023/01/09 01:22:47;;;;;;;2.05;0.68;;;6.70;99.90;;;;;;5089419;28;20476;-77
2023/01/09 01:25:15;;;;;;;3.60;1.00;;;6.60;99.90;;;;;;5090836;28;20763;-77
2023/01/09 01:27:41;;;;;;;3.03;0.90;;;6.70;99.90;;;;;;5088597;28;20412;-77
2023/01/09 01:30:09;;;;;;;2.90;0.50;;;6.60;99.90;;;;;;5088619;28;20489;-77
2023/01/09 01:32:36;;;;;;;2.17;0.40;;;6.60;99.90;;;;;;5089602;28;20732;-77
2023/01/09 01:35:01;;;;;;;2.80;0.43;;;6.60;99.90;;;;;;5070867;28;20448;-77
2023/01/09 01:37:27;;;;;;;2.67;0.40;;;6.60;99.90;;;;;;5088042;28;20403;-77
2023/01/09 01:39:53;;;;;;;1.60;0.20;;;6.60;99.90;;;;;;5089183;28;20406;-77
2023/01/09 01:42:18;;;;;;;1.98;0.30;;;6.60;99.90;;;;;;5089445;28;20484;-77
2023/01/09 01:45:07;;;;;;;1.17;0.20;;;6.50;99.90;;;;;;5090555;28;20430;-77
2023/01/09 01:48:01;;;;;;;1.00;0.20;;;6.50;99.90;;;;;;5089692;28;20402;-77
2023/01/09 01:50:26;;;;;;;2.90;0.30;;;6.50;99.90;;;;;;5080574;28;21190;-77
2023/01/09 01:53:05;;;;;;;0.60;0.10;;;6.50;99.90;;;;;;5087878;28;20422;-77
2023/01/09 01:55:32;;;;;;;2.20;0.20;;;6.40;99.90;;;;;;5089111;28;20934;-77
2023/01/09 01:58:02;;;;;;;1.25;0.20;;;6.40;99.90;;;;;;5089331;28;20752;-77
2023/01/09 02:00:32;;;;;;;1.10;0.30;;;6.40;99.90;;;;;;5088525;28;20947;-77
2023/01/09 02:02:59;;;;;;;1.70;0.10;;;6.40;99.90;;;;;;5069096;28;20426;-77
2023/01/09 02:05:25;;;;;;;1.00;0.10;;;6.40;99.90;;;;;;5089205;28;20409;-77
2023/01/09 02:07:50;;;;;;;0.80;0.20;;;6.40;99.90;;;;;;5087981;28;20892;-77
2023/01/09 02:10:17;;;;;;;1.50;0.30;;;6.40;99.90;;;;;;5088464;28;20467;-77
2023/01/09 02:12:42;;;;;;;1.55;0.35;;;6.40;99.90;;;;;;5071098;28;20485;-77
2023/01/09 02:15:13;;;;;;;1.55;0.50;;;6.40;99.90;;;;;;5088559;28;20489;-77
2023/01/09 02:17:58;;;;;;;1.45;0.65;;;6.40;99.90;;;;;;5087030;28;20406;-77
2023/01/09 02:20:42;;;;;;;3.20;0.73;;;6.40;99.90;;;;;;5071495;28;20402;-77
2023/01/09 02:23:46;;;;;;;3.60;0.95;;;6.50;99.90;;;;;;5088443;28;20436;-77
2023/01/09 02:26:20;;;;;;;3.00;0.98;;;6.50;99.90;;;;;;5069446;28;20502;-77
2023/01/09 02:29:27;;;;;;;4.43;1.00;;;6.50;99.90;;;;;;5103114;28;20406;-77
2023/01/09 02:32:17;;;;;;;3.70;1.10;;;6.60;99.90;;;;;;5076298;28;20421;-77
2023/01/09 02:34:59;;;;;;;3.47;1.38;;;6.60;99.90;;;;;;5086528;28;20839;-77
2023/01/09 02:37:45;;;;;;;5.43;1.40;;;6.60;99.90;;;;;;5088200;28;20402;-77
2023/01/09 02:40:30;;;;;;;4.03;1.60;;;6.60;99.90;;;;;;5088289;28;20406;-77
2023/01/09 02:42:58;;;;;;;4.93;1.75;;;6.60;99.90;;;;;;5087513;28;20422;-77
2023/01/09 02:45:24;;;;;;;4.13;1.60;;;6.60;99.90;;;;;;5087183;28;20450;-77
2023/01/09 02:47:50;;;;;;;6.03;1.70;;;6.60;99.90;;;;;;5087526;28;20908;-77
2023/01/09 02:50:31;;;;;;;6.47;1.65;;;6.60;99.90;;;;;;5086887;28;20502;-77
2023/01/09 02:53:13;;;;;;;3.92;1.60;;;6.60;99.90;;;;;;5087512;28;20490;-77
2023/01/09 02:55:51;;;;;;;4.50;1.60;;;6.60;99.90;;;;;;5088535;28;20507;-77
2023/01/09 02:58:38;;;;;;;5.38;1.50;;;6.60;99.90;;;;;;5083882;28;20416;-77
2023/01/09 03:01:25;;;;;;;4.78;1.90;;;6.60;99.90;;;;;;5087849;28;20554;-77
2023/01/09 03:04:15;;;;;;;5.32;1.70;;;6.50;99.90;;;;;;5070448;28;20506;-77
2023/01/09 03:07:02;;;;;;;5.13;1.67;;;6.50;99.90;;;;;;5087243;28;20479;-77
2023/01/09 03:09:33;;;;;;;5.28;1.60;;;6.50;99.90;;;;;;5087441;28;20414;-77
2023/01/09 03:12:07;;;;;;;5.47;1.75;;;6.40;99.90;;;;;;5069912;28;20485;-77
2023/01/09 03:14:37;;;;;;;5.03;1.52;;;6.40;99.90;;;;;;5075308;28;20417;-77
2023/01/09 03:17:07;;;;;;;5.57;1.80;;;6.40;99.90;;;;;;5087807;28;20406;-76
2023/01/09 03:19:34;;;;;;;4.73;1.37;;;6.30;99.90;;;;;;5087045;28;20787;-77
2023/01/09 03:21:59;;;;;;;6.32;1.83;;;6.30;99.90;;;;;;5087331;28;20552;-77
2023/01/09 03:24:25;;;;;;;4.25;1.45;;;6.30;99.90;;;;;;5087104;28;20517;-77
2023/01/09 03:26:53;;;;;;;4.23;1.77;;;6.30;99.90;;;;;;5087129;28;20406;-77
2023/01/09 03:29:18;;;;;;;5.95;1.73;;;6.30;99.90;;;;;;5085067;28;20911;-77
2023/01/09 03:31:44;;;;;;;4.97;1.83;;;6.20;99.90;;;;;;5088269;28;20470;-77
2023/01/09 03:34:10;;;;;;;3.67;1.80;;;6.20;99.90;;;;;;5087278;28;20402;-77
2023/01/09 03:36:35;;;;;;;6.22;1.80;;;6.20;99.90;;;;;;5085818;28;20406;-77
2023/01/09 03:39:01;;;;;;;6.83;1.83;;;6.20;99.90;;;;;;5086227;28;20779;-77
2023/01/09 03:41:27;;;;;;;6.20;1.73;;;6.10;99.90;;;;;;5086870;28;20413;-77
2023/01/09 03:43:52;;;;;;;5.22;1.92;;;6.10;99.90;;;;;;5086666;28;20465;-77
2023/01/09 03:46:18;;;;;;;5.03;1.57;;;6.10;99.90;;;;;;5086825;28;20394;-77
2023/01/09 03:48:43;;;;;;;4.00;1.20;;;6.00;99.90;;;;;;5085949;28;20438;-77
2023/01/09 03:51:09;;;;;;;6.33;1.50;;;6.00;99.90;;;;;;5092439;28;20805;-77
2023/01/09 03:53:35;;;;;;;5.65;1.77;;;6.00;99.90;;;;;;5070631;28;20422;-77
2023/01/09 03:56:00;;;;;;;7.38;1.98;;;6.00;99.90;;;;;;5074362;28;20786;-77
2023/01/09 03:58:26;;;;;;;5.27;1.80;;;5.90;99.90;;;;;;5079691;28;20516;-77
2023/01/09 04:00:57;;;;;;;6.15;1.73;;;5.90;99.90;;;;;;5081573;28;20416;-77
2023/01/09 04:03:23;;;;;;;5.75;2.00;;;5.90;99.90;;;;;;5086187;28;20434;-77
2023/01/09 04:05:49;;;;;;;5.93;1.73;;;5.80;99.90;;;;;;5102720;28;20401;-77
2023/01/09 04:08:15;;;;;;;8.30;2.73;;;5.80;99.90;;;;;;5090720;28;21141;-77
2023/01/09 04:10:44;;;;;;;8.03;2.13;;;5.80;99.90;;;;;;5077482;28;20409;-77
2023/01/09 04:13:09;;;;;;;8.40;2.13;;;5.70;99.90;;;;;;5101994;28;20800;-77
2023/01/09 04:15:35;;;;;;;6.00;1.90;;;5.70;99.90;;;;;;5090922;28;20398;-77
2023/01/09 04:18:02;;;;;;;7.90;2.30;;;5.70;99.90;;;;;;5072714;28;20410;-77
2023/01/09 04:20:28;;;;;;;7.47;2.40;;;5.70;99.90;;;;;;5103952;28;20401;-77
2023/01/09 04:22:53;;;;;;;6.17;2.50;;;5.70;99.90;;;;;;5089489;28;20448;-77
2023/01/09 04:25:21;;;;;;;8.52;2.78;;;5.70;99.90;;;;;;5090310;28;20466;-77
2023/01/09 04:27:47;;;;;;;6.50;2.83;;;5.60;99.90;;;;;;5077305;28;20390;-77
2023/01/09 04:30:13;;;;;;;8.23;3.03;;;5.60;99.90;;;;;;5090933;28;20473;-77
2023/01/09 04:32:39;;;;;;;9.57;3.10;;;5.60;99.90;;;;;;5090486;28;20982;-77
2023/01/09 04:35:06;;;;;;;7.55;3.00;;;5.60;99.90;;;;;;5090548;28;20467;-77
2023/01/09 04:37:34;;;;;;;7.15;3.13;;;5.60;99.90;;;;;;5090661;28;20481;-77
2023/01/09 04:40:02;;;;;;;7.45;3.22;;;5.60;99.90;;;;;;5090167;28;20390;-77
2023/01/09 04:42:27;;;;;;;8.60;3.53;;;5.60;99.90;;;;;;5104275;28;20436;-77
2023/01/09 04:44:53;;;;;;;9.33;3.50;;;5.50;99.90;;;;;;5090840;28;20780;-76
2023/01/09 04:47:20;;;;;;;6.15;3.53;;;5.50;99.90;;;;;;5090854;28;20394;-77
2023/01/09 04:49:45;;;;;;;9.90;3.53;;;5.50;99.90;;;;;;5089879;28;20410;-77
2023/01/09 04:52:11;;;;;;;8.43;3.03;;;5.50;99.90;;;;;;5091316;28;20398;-77
2023/01/09 04:54:38;;;;;;;8.25;3.95;;;5.40;99.90;;;;;;5090488;28;20924;-77
2023/01/09 04:57:04;;;;;;;8.85;3.63;;;5.40;99.90;;;;;;5090615;28;20406;-77
2023/01/09 04:59:29;;;;;;;8.93;3.67;;;5.40;99.90;;;;;;5090240;28;20405;-77
2023/01/09 05:01:57;;;;;;;8.77;3.43;;;5.40;99.90;;;;;;5087785;28;20398;-77
2023/01/09 05:04:23;;;;;;;8.23;3.60;;;5.40;99.90;;;;;;5102139;28;20420;-77
2023/01/09 05:06:48;;;;;;;8.77;4.00;;;5.30;99.90;;;;;;5109194;28;20823;-77
2023/01/09 05:09:14;;;;;;;9.13;3.80;;;5.30;99.90;;;;;;5097889;28;20477;-77
2023/01/09 05:11:40;;;;;;;10.30;4.25;;;5.20;99.90;;;;;;5108084;28;20785;-77
2023/01/09 05:14:05;;;;;;;10.03;3.80;;;5.20;99.90;;;;;;5097675;28;20398;-77
2023/01/09 05:16:31;;;;;;;9.90;4.30;;;5.20;99.90;;;;;;5102782;28;20402;-77
2023/01/09 05:18:59;;;;;;;14.45;4.88;;;5.20;99.90;;;;;;5090304;28;20397;-77
2023/01/09 05:21:25;;;;;;;7.63;3.92;;;5.20;99.90;;;;;;5088467;28;20485;-77
2023/01/09 05:23:50;;;;;;;10.25;4.18;;;5.10;99.90;;;;;;5089360;28;20433;-77
2023/01/09 05:26:17;;;;;;;10.02;4.57;;;5.10;99.90;;;;;;5089392;28;20398;-77
2023/01/09 05:28:43;;;;;;;10.07;4.70;;;5.10;99.90;;;;;;5090248;28;20535;-77
2023/01/09 05:31:08;;;;;;;10.15;4.70;;;5.10;99.90;;;;;;5089702;28;20481;-77
2023/01/09 05:33:34;;;;;;;10.07;4.73;;;5.10;99.90;;;;;;5089892;28;21355;-77
2023/01/09 05:35:59;;;;;;;12.60;4.90;;;5.10;99.90;;;;;;5087423;28;20410;-77
2023/01/09 05:38:25;;;;;;;13.57;4.70;;;5.00;99.90;;;;;;5089363;28;20491;-77
2023/01/09 05:40:51;;;;;;;11.43;5.47;;;5.00;99.90;;;;;;5089671;28;20526;-77
2023/01/09 05:43:16;;;;;;;11.98;5.88;;;5.00;99.90;;;;;;5083847;28;20502;-77
2023/01/09 05:45:42;;;;;;;13.67;5.83;;;5.10;99.90;;;;;;5082921;28;20398;-77
2023/01/09 05:48:08;;;;;;;12.23;6.00;;;5.10;99.90;;;;;;5088923;28;20892;-77
2023/01/09 05:50:33;;;;;;;14.00;6.20;;;5.10;99.90;;;;;;5088833;28;20512;-77
2023/01/09 05:52:59;;;;;;;12.50;6.80;;;5.10;99.90;;;;;;5089141;28;20402;-77
2023/01/09 05:55:24;;;;;;;12.40;6.50;;;5.10;99.90;;;;;;5102177;28;20485;-77
2023/01/09 05:57:50;;;;;;;14.47;6.47;;;5.10;99.90;;;;;;5089230;28;20888;-77
2023/01/09 06:00:16;;;;;;;12.60;6.57;;;5.10;99.90;;;;;;5088814;28;20406;-77
2023/01/09 06:02:42;;;;;;;15.70;7.30;;;5.10;99.90;;;;;;5087191;28;20867;-77
2023/01/09 06:05:08;;;;;;;17.93;7.80;;;5.10;99.90;;;;;;5088952;28;20473;-77
2023/01/09 06:07:38;;;;;;;16.37;8.10;;;5.10;99.90;;;;;;5088875;28;20613;-76
2023/01/09 06:10:03;;;;;;;16.73;9.85;;;5.20;99.90;;;;;;5088876;28;20966;-76
2023/01/09 06:12:29;;;;;;;14.50;8.80;;;5.20;99.90;;;;;;5089639;28;20405;-77
2023/01/09 06:14:55;;;;;;;15.20;9.30;;;5.30;99.90;;;;;;5089259;28;20398;-77
2023/01/09 06:17:20;;;;;;;18.13;10.10;;;5.30;99.90;;;;;;5087422;28;20966;-77
2023/01/09 06:19:46;;;;;;;19.98;10.95;;;5.40;99.90;;;;;;5088253;28;20398;-77
2023/01/09 06:22:11;;;;;;;18.83;10.27;;;5.40;99.90;;;;;;5088453;28;20390;-77
2023/01/09 06:24:37;;;;;;;19.85;10.63;;;5.40;99.90;;;;;;5088413;28;20429;-77
2023/01/09 06:27:02;;;;;;;18.57;10.57;;;5.50;99.90;;;;;;5087350;28;20406;-77
2023/01/09 06:29:28;;;;;;;17.75;10.75;;;5.50;99.90;;;;;;5088599;28;20405;-77
2023/01/09 06:31:54;;;;;;;21.17;11.33;;;5.60;99.90;;;;;;5088431;28;20394;-77
2023/01/09 06:34:19;;;;;;;19.38;11.70;;;5.60;99.90;;;;;;5088681;28;20398;-77
2023/01/09 06:36:45;;;;;;;23.13;13.13;;;5.60;99.90;;;;;;5087692;28;20406;-77
2023/01/09 06:39:12;;;;;;;20.10;11.67;;;5.70;99.90;;;;;;5088300;28;20402;-77
2023/01/09 06:41:38;;;;;;;25.35;14.25;;;5.70;99.90;;;;;;5089301;28;20398;-77
2023/01/09 06:44:04;;;;;;;21.77;13.43;;;5.70;99.90;;;;;;5089652;28;20428;-77
2023/01/09 06:46:29;;;;;;;21.33;13.48;;;5.70;99.90;;;;;;5088727;28;20393;-77
2023/01/09 06:48:55;;;;;;;22.77;14.33;;;5.70;99.90;;;;;;5089007;28;20409;-77
2023/01/09 06:51:20;;;;;;;23.13;14.20;;;5.80;99.90;;;;;;5087998;28;20870;-75
2023/01/09 06:53:46;;;;;;;24.23;14.53;;;5.70;99.90;;;;;;5086741;28;20417;-74
2023/01/09 06:56:12;;;;;;;23.50;14.73;;;5.80;99.90;;;;;;5088213;28;20477;-76
2023/01/09 06:58:37;;;;;;;25.07;14.40;;;5.80;99.90;;;;;;5081811;28;21000;-75
2023/01/09 07:01:03;;;;;;;21.47;14.07;;;5.80;99.90;;;;;;5084515;28;20451;-76
2023/01/09 07:03:28;;;;;;;23.80;14.20;;;5.80;99.90;;;;;;5085612;28;20438;-76
2023/01/09 07:05:55;;;;;;;25.07;14.10;;;5.80;99.90;;;;;;5069928;28;20407;-77
2023/01/09 07:08:20;;;;;;;21.02;13.80;;;5.90;99.90;;;;;;5087217;28;20402;-77
2023/01/09 07:10:46;;;;;;;24.87;13.97;;;5.90;99.90;;;;;;5086910;28;20471;-77
2023/01/09 07:13:12;;;;;;;24.40;14.30;;;5.90;99.90;;;;;;5085393;28;20413;-77
2023/01/09 07:15:37;;;;;;;21.90;13.67;;;5.90;99.90;;;;;;5086110;28;20489;-77
2023/01/09 07:18:03;;;;;;;21.27;13.77;;;5.90;99.90;;;;;;5086570;28;20766;-76
2023/01/09 07:20:29;;;;;;;22.80;14.60;;;6.00;99.90;;;;;;5088457;28;21375;-77
2023/01/09 07:22:55;;;;;;;25.33;13.85;;;5.90;99.90;;;;;;5085904;28;20397;-77
2023/01/09 07:25:20;;;;;;;23.17;14.13;;;5.90;99.90;;;;;;5090396;28;20422;-77
2023/01/09 07:27:46;;;;;;;21.55;13.73;;;6.00;99.90;;;;;;5090656;28;20406;-77
2023/01/09 07:30:12;;;;;;;23.63;14.35;;;6.00;99.90;;;;;;5074110;28;20870;-77
2023/01/09 07:32:39;;;;;;;20.65;14.02;;;5.90;99.90;;;;;;5090906;28;20459;-77
2023/01/09 07:35:07;;;;;;;20.27;12.90;;;6.00;99.90;;;;;;5090297;28;20503;-77
2023/01/09 07:37:33;;;;;;;20.13;12.93;;;5.90;99.90;;;;;;5091606;28;20414;-77
2023/01/09 07:39:59;;;;;;;19.52;12.23;;;5.90;99.90;;;;;;5090647;28;20410;-77
2023/01/09 07:42:24;;;;;;;20.25;13.02;;;5.90;99.90;;;;;;5090576;28;20416;-77
2023/01/09 07:44:50;;;;;;;19.98;12.32;;;5.90;99.90;;;;;;5073234;28;20429;-77
2023/01/09 07:47:15;;;;;;;20.03;12.67;;;5.90;99.90;;;;;;5090464;28;20410;-77
2023/01/09 07:49:41;;;;;;;20.80;13.50;;;5.90;99.90;;;;;;5090310;28;20493;-77
2023/01/09 07:52:07;;;;;;;19.43;13.07;;;5.90;99.90;;;;;;5072587;28;20402;-77
2023/01/09 07:54:32;;;;;;;19.93;12.03;;;6.00;99.90;;;;;;5091623;28;20402;-77
2023/01/09 07:56:58;;;;;;;16.20;11.43;;;5.90;99.90;;;;;;5090163;28;20420;-77
2023/01/09 07:59:25;;;;;;;17.80;11.20;;;5.90;99.90;;;;;;5089980;28;20493;-77
2023/01/09 08:01:50;;;;;;;20.63;12.52;;;6.00;99.90;;;;;;5090108;28;20454;-77
2023/01/09 08:04:16;;;;;;;18.57;11.80;;;5.90;99.90;;;;;;5073547;28;20430;-77
2023/01/09 08:06:42;;;;;;;16.98;11.57;;;5.90;99.90;;;;;;5091686;28;20436;-77
2023/01/09 08:09:07;;;;;;;18.00;11.50;;;6.00;99.90;;;;;;5090763;28;20809;-77
2023/01/09 08:11:33;;;;;;;18.73;11.87;;;6.00;99.90;;;;;;5074240;28;21467;-77
2023/01/09 08:13:59;;;;;;;17.65;11.38;;;6.00;99.90;;;;;;5091688;28;20402;-77
2023/01/09 08:16:24;;;;;;;17.02;11.27;;;6.00;99.90;;;;;;5090658;28;22121;-77
2023/01/09 08:18:50;;;;;;;22.03;12.47;;;6.00;99.90;;;;;;5090007;28;20433;-77
2023/01/09 08:21:15;;;;;;;17.40;11.35;;;6.00;99.90;;;;;;5091782;28;20411;-77
2023/01/09 08:23:41;;;;;;;18.50;11.03;;;6.00;99.90;;;;;;5091108;28;20436;-77
2023/01/09 08:26:07;;;;;;;14.82;9.93;;;6.00;99.90;;;;;;5091587;28;20405;-77
2023/01/09 08:28:32;;;;;;;15.93;10.10;;;6.00;99.90;;;;;;5090474;28;20769;-77
2023/01/09 08:30:58;;;;;;;15.40;9.47;;;6.00;99.90;;;;;;5091596;28;20774;-77
2023/01/09 08:33:24;;;;;;;15.35;9.15;;;6.00;99.90;;;;;;5090563;28;20412;-77
2023/01/09 08:35:49;;;;;;;13.07;9.23;;;6.00;99.90;;;;;;5104544;28;20419;-77
2023/01/09 08:38:15;;;;;;;16.37;9.63;;;6.00;99.90;;;;;;5089661;28;20524;-77
2023/01/09 08:40:40;;;;;;;13.30;8.70;;;6.10;99.90;;;;;;5090228;28;20412;-77
2023/01/09 08:48:35;;;;;;;14.43;8.33;;;6.00;99.90;;;;;;5092604;28;20406;-77
2023/01/09 08:51:01;;;;;;;14.33;8.17;;;6.10;99.90;;;;;;5089555;28;20551;-77
2023/01/09 08:53:27;;;;;;;13.90;7.82;;;6.10;99.90;;;;;;5090022;28;20417;-77
2023/01/09 08:55:52;;;;;;;12.75;7.50;;;6.10;99.90;;;;;;5090194;28;20902;-77
2023/01/09 08:58:18;;;;;;;12.33;7.23;;;6.10;99.90;;;;;;5088496;28;20406;-77
2023/01/09 09:00:44;;;;;;;13.18;7.65;;;6.10;99.90;;;;;;5090215;28;20763;-77
2023/01/09 09:03:10;;;;;;;16.00;7.30;;;6.00;99.90;;;;;;5088621;28;20425;-77
2023/01/09 09:05:36;;;;;;;14.32;7.40;;;6.10;99.90;;;;;;5090038;28;20397;-77
2023/01/09 09:08:02;;;;;;;12.98;7.55;;;6.10;99.90;;;;;;5090374;28;20409;-77
2023/01/09 09:10:29;;;;;;;12.32;7.30;;;6.10;99.90;;;;;;5090086;28;20455;-77
2023/01/09 09:12:56;;;;;;;13.80;7.38;;;6.10;99.90;;;;;;5089716;28;20397;-77
2023/01/09 09:15:22;;;;;;;13.25;6.95;;;6.10;99.90;;;;;;5090036;28;20411;-77
2023/01/09 09:18:02;;;;;;;10.95;6.78;;;6.10;99.90;;;;;;5089008;28;20402;-77
2023/01/09 09:20:36;;;;;;;11.00;6.50;;;6.10;99.90;;;;;;5089810;28;20406;-77
2023/01/09 09:23:03;;;;;;;13.85;6.95;;;6.10;99.90;;;;;;5089843;28;21021;-76
2023/01/09 09:25:28;;;;;;;12.38;6.60;;;6.20;99.90;;;;;;5089250;28;20398;-77
2023/01/09 09:27:59;;;;;;;12.48;6.40;;;6.20;99.90;;;;;;5089531;28;20439;-77
2023/01/09 09:30:25;;;;;;;10.98;5.90;;;6.20;99.90;;;;;;5088347;28;20442;-77
2023/01/09 09:32:51;;;;;;;9.63;5.70;;;6.20;99.90;;;;;;5090294;28;20438;-77
2023/01/09 09:35:17;;;;;;;9.07;5.82;;;6.20;99.90;;;;;;5088805;28;20414;-77
2023/01/09 09:37:51;;;;;;;10.63;5.55;;;6.10;99.90;;;;;;5089154;28;20402;-77
2023/01/09 09:40:40;;;;;;;7.90;4.77;;;6.20;99.90;;;;;;5087530;28;20965;-77
2023/01/09 09:46:43;;;;;;;7.72;4.68;;;6.20;99.90;;;;;;5076925;28;20425;-77
2023/01/09 09:49:30;;;;;;;7.60;4.72;;;6.20;99.90;;;;;;5059377;28;20502;-77
2023/01/09 09:52:13;;;;;;;10.23;4.38;;;6.20;99.90;;;;;;5087767;28;20464;-77
2023/01/09 09:54:46;;;;;;;9.73;4.03;;;6.20;99.90;;;;;;5087969;28;20467;-77
2023/01/09 09:57:18;;;;;;;10.20;4.30;;;6.20;99.90;;;;;;5089045;28;20763;-77
2023/01/09 09:59:47;;;;;;;8.13;3.70;;;6.20;99.90;;;;;;5087285;28;20409;-77
2023/01/09 10:02:27;;;;;;;8.38;4.03;;;6.30;99.90;;;;;;5075649;28;20433;-77
2023/01/09 10:05:04;;;;;;;10.03;3.77;;;6.30;99.90;;;;;;5087056;28;20437;-77
2023/01/09 10:07:40;;;;;;;10.85;4.10;;;6.30;99.90;;;;;;5087523;28;20414;-77
2023/01/09 10:10:14;;;;;;;7.38;3.75;;;6.30;99.90;;;;;;5087534;28;20495;-77
2023/01/09 10:12:52;;;;;;;10.37;3.67;;;6.40;99.90;;;;;;5087597;28;20390;-77
2023/01/09 10:15:23;;;;;;;7.68;3.83;;;6.40;99.90;;;;;;5075136;28;20390;-77
2023/01/09 10:18:16;;;;;;;8.40;3.60;;;6.40;99.90;;;;;;5087643;28;20485;-77
2023/01/09 10:21:00;;;;;;;8.50;3.50;;;6.50;99.90;;;;;;5088834;28;20440;-77
2023/01/09 10:23:45;;;;;;;8.02;4.05;;;6.50;99.90;;;;;;5075677;28;20433;-77
2023/01/09 10:26:36;;;;;;;8.15;3.58;;;6.50;99.90;;;;;;5070342;28;20749;-77
2023/01/09 10:29:36;;;;;;;8.68;3.50;;;6.50;99.90;;;;;;5088531;28;20784;-77
2023/01/09 10:32:35;;;;;;;7.47;3.42;;;6.60;99.90;;;;;;5080975;28;20431;-77
2023/01/09 10:35:33;;;;;;;5.97;3.28;;;6.60;99.90;;;;;;5079481;28;20430;-77
2023/01/09 10:38:03;;;;;;;8.23;3.83;;;6.60;99.90;;;;;;5088663;28;20417;-77
2023/01/09 10:40:40;;;;;;;9.57;3.47;;;6.60;99.90;;;;;;5087341;28;20475;-77
2023/01/09 10:43:25;;;;;;;11.75;3.70;;;6.70;99.90;;;;;;5088000;28;20514;-77
2023/01/09 10:45:54;;;;;;;7.78;3.90;;;6.70;99.90;;;;;;5086206;28;20842;-77
2023/01/09 10:48:39;;;;;;;8.38;3.47;;;6.70;99.90;;;;;;5090255;28;20402;-77
2023/01/09 10:51:18;;;;;;;8.90;3.30;;;6.80;99.90;;;;;;5077032;28;20906;-77
2023/01/09 10:53:54;;;;;;;6.97;3.50;;;6.80;99.90;;;;;;5091269;28;20905;-77
2023/01/09 10:56:29;;;;;;;7.38;3.50;;;6.90;99.90;;;;;;5106712;28;20405;-77
2023/01/09 10:58:55;;;;;;;6.55;3.47;;;7.00;99.90;;;;;;5101215;28;20433;-77
2023/01/09 11:01:30;;;;;;;7.90;3.10;;;7.00;99.90;;;;;;5087907;28;20429;-78
2023/01/09 11:03:58;;;;;;;7.90;3.22;;;7.00;99.90;;;;;;5076034;28;20857;-77
2023/01/09 11:06:49;;;;;;;9.30;3.40;;;7.10;99.90;;;;;;5086917;28;20406;-77
2023/01/09 11:09:15;;;;;;;5.88;2.90;;;7.10;99.90;;;;;;5081809;28;20908;-76
2023/01/09 11:11:41;;;;;;;9.32;3.50;;;7.10;99.90;;;;;;5088760;28;20963;-77
2023/01/09 11:14:21;;;;;;;7.38;3.25;;;7.20;99.90;;;;;;5089237;28;20758;-77
2023/01/09 11:17:17;;;;;;;7.00;3.08;;;7.30;99.90;;;;;;5087036;28;20401;-77
2023/01/09 11:20:03;;;;;;;5.38;2.80;;;7.40;99.90;;;;;;5086488;28;20405;-77
2023/01/09 11:22:46;;;;;;;9.90;2.97;;;7.40;99.90;;;;;;5090653;28;20410;-77
2023/01/09 11:25:14;;;;;;;7.30;3.00;;;7.50;99.90;;;;;;5090157;28;20442;-77
2023/01/09 11:27:40;;;;;;;8.15;3.40;;;7.50;99.90;;;;;;5092624;28;20897;-77
2023/01/09 11:30:14;;;;;;;6.90;3.10;;;7.50;99.90;;;;;;5087504;28;20405;-78
2023/01/09 11:32:40;;;;;;;7.72;3.60;;;7.50;99.90;;;;;;5085077;28;20945;-77
2023/01/09 11:35:19;;;;;;;6.97;3.00;;;7.50;99.90;;;;;;5086048;28;20545;-77
2023/01/09 11:37:47;;;;;;;7.03;2.92;;;7.50;99.90;;;;;;5102400;28;20481;-77
2023/01/09 11:40:19;;;;;;;8.83;3.23;;;7.50;99.90;;;;;;5090067;28;20417;-76
2023/01/09 11:43:02;;;;;;;7.35;2.97;;;7.50;99.90;;;;;;5093246;28;20485;-77
2023/01/09 11:45:33;;;;;;;7.13;3.03;;;7.40;99.90;;;;;;5094130;28;21125;-77
2023/01/09 11:48:00;;;;;;;6.97;2.95;;;7.40;99.90;;;;;;5089503;28;20409;-77
2023/01/09 11:50:27;;;;;;;8.23;3.20;;;7.40;99.90;;;;;;5092527;28;20447;-77
2023/01/09 11:53:18;;;;;;;6.80;2.95;;;7.40;99.90;;;;;;5087086;28;20760;-77
2023/01/09 11:55:46;;;;;;;8.52;3.03;;;7.40;99.90;;;;;;5073148;28;20460;-77
2023/01/09 11:58:20;;;;;;;7.53;2.70;;;7.40;99.90;;;;;;5087385;28;20397;-77
2023/01/09 12:01:23;;;;;;;7.50;2.75;;;7.40;99.90;;;;;;5087575;28;20440;-77
2023/01/09 12:04:10;;;;;;;7.33;2.83;;;7.40;99.90;;;;;;5055485;28;20469;-77
2023/01/09 12:06:55;;;;;;;5.22;2.78;;;7.40;99.90;;;;;;5088171;28;20415;-77
2023/01/09 12:09:33;;;;;;;8.00;3.00;;;7.40;99.90;;;;;;5086758;28;20449;-77
2023/01/09 12:12:12;;;;;;;7.33;2.70;;;7.40;99.90;;;;;;5089360;28;20439;-77
2023/01/09 12:15:01;;;;;;;7.28;3.00;;;7.40;99.90;;;;;;5091002;28;20430;-77
2023/01/09 12:17:44;;;;;;;8.40;3.08;;;7.40;99.90;;;;;;5089621;28;21107;-77
2023/01/09 12:20:37;;;;;;;6.93;2.75;;;7.40;99.90;;;;;;5078883;28;20406;-77
2023/01/09 12:23:18;;;;;;;5.75;2.60;;;7.50;99.90;;;;;;5090278;28;20479;-77
2023/01/09 12:26:19;;;;;;;7.50;3.00;;;7.40;99.90;;;;;;5072341;28;20418;-77
2023/01/09 12:28:56;;;;;;;6.63;3.38;;;7.40;99.90;;;;;;4988598;28;20411;-77
2023/01/09 12:31:37;;;;;;;7.25;3.05;;;7.40;99.90;;;;;;5063404;28;20421;-77
2023/01/09 12:34:24;;;;;;;7.15;2.80;;;7.30;99.90;;;;;;5089981;28;20773;-77
2023/01/09 12:37:04;;;;;;;9.70;3.30;;;7.30;99.90;;;;;;5091943;28;20525;-77
2023/01/09 12:39:42;;;;;;;6.13;3.28;;;7.30;99.90;;;;;;5088671;28;20493;-77
2023/01/09 12:42:15;;;;;;;7.50;3.63;;;7.30;99.90;;;;;;5092452;28;20417;-76
2023/01/09 12:44:56;;;;;;;9.02;3.75;;;7.30;99.90;;;;;;5080551;28;20429;-77
2023/01/09 12:47:44;;;;;;;6.85;3.20;;;7.30;99.90;;;;;;5092113;28;20488;-77
2023/01/09 12:50:43;;;;;;;6.38;3.50;;;7.30;99.90;;;;;;5090494;28;20545;-77
2023/01/09 12:53:21;;;;;;;6.35;3.40;;;7.30;99.90;;;;;;5083701;28;20446;-77
2023/01/09 12:55:54;;;;;;;6.40;4.00;;;7.30;99.90;;;;;;5107269;28;20409;-77
2023/01/09 12:58:41;;;;;;;7.15;3.88;;;7.30;99.90;;;;;;5107314;28;20411;-77
2023/01/09 13:01:16;;;;;;;8.15;3.60;;;7.30;99.90;;;;;;5108459;28;20404;-77
2023/01/09 13:03:51;;;;;;;9.35;4.25;;;7.30;99.90;;;;;;5090952;28;20425;-77
2023/01/09 13:06:20;;;;;;;8.32;4.10;;;7.30;99.90;;;;;;5088886;28;20414;-77
2023/01/09 13:08:53;;;;;;;10.27;4.90;;;7.30;99.90;;;;;;5089048;28;20459;-77
2023/01/09 13:11:36;;;;;;;9.90;4.32;;;7.30;99.90;;;;;;5090589;28;20460;-77
2023/01/09 13:14:55;;;;;;;7.25;4.15;;;7.30;99.90;;;;;;5072288;28;20429;-77
2023/01/09 13:17:42;;;;;;;8.32;4.05;;;7.30;99.90;;;;;;5054702;28;20418;-77
2023/01/09 13:20:50;;;;;;;9.52;4.30;;;7.30;99.90;;;;;;5105188;28;20424;-77
2023/01/09 13:24:04;;;;;;;9.35;4.63;;;7.30;99.90;;;;;;5087645;28;20768;-77
2023/01/09 13:26:58;;;;;;;8.13;4.45;;;7.30;99.90;;;;;;5072571;28;20825;-77